createdAt,value
2018-09-18T00:00:54.904Z,32.80
2018-09-18T00:03:23.954Z,32.80
2018-09-18T00:05:54.919Z,32.80
2018-09-18T00:08:23.765Z,32.90
2018-09-18T00:10:52.590Z,32.90
2018-09-18T00:13:21.426Z,32.90
2018-09-18T00:15:50.247Z,32.90
2018-09-18T00:18:19.113Z,33.00
2018-09-18T00:20:47.956Z,32.90
2018-09-18T00:23:16.755Z,33.00
2018-09-18T00:25:47.675Z,33.00
2018-09-18T00:28:16.492Z,33.00
2018-09-18T00:30:45.311Z,33.00
2018-09-18T00:33:14.131Z,33.00
2018-09-18T00:35:42.991Z,33.10
2018-09-18T00:38:12.010Z,33.10
2018-09-18T00:40:41.060Z,33.10
2018-09-18T00:43:09.903Z,33.10
2018-09-18T00:45:38.719Z,33.20
2018-09-18T00:48:07.897Z,33.20
2018-09-18T00:50:37.195Z,33.20
2018-09-18T00:53:07.778Z,33.80
2018-09-18T00:55:36.671Z,33.20
2018-09-18T00:58:05.494Z,33.20
2018-09-18T01:00:34.343Z,33.20
2018-09-18T01:03:04.308Z,33.30
2018-09-18T01:05:33.135Z,33.30
2018-09-18T01:08:01.963Z,33.30
2018-09-18T01:10:30.803Z,33.30
2018-09-18T01:12:59.624Z,33.40
2018-09-18T01:15:30.106Z,33.40
2018-09-18T01:17:58.935Z,33.40
2018-09-18T01:20:27.765Z,33.30
2018-09-18T01:22:56.859Z,33.40
2018-09-18T01:25:26.835Z,33.40
2018-09-18T01:27:55.660Z,33.50
2018-09-18T01:30:25.081Z,33.50
2018-09-18T01:32:53.884Z,33.50
2018-09-18T01:35:22.710Z,33.50
2018-09-18T01:37:52.210Z,33.60
2018-09-18T01:40:21.078Z,33.60
2018-09-18T01:42:49.920Z,33.60
2018-09-18T01:45:18.783Z,33.60
2018-09-18T01:47:47.783Z,33.70
2018-09-18T01:50:17.020Z,33.70
2018-09-18T01:52:47.131Z,33.70
2018-09-18T01:55:15.988Z,33.70
2018-09-18T01:57:44.826Z,33.80
2018-09-18T02:00:13.665Z,33.80
2018-09-18T02:02:43.175Z,33.80
2018-09-18T02:05:12.049Z,33.80
2018-09-18T02:07:40.870Z,33.80
2018-09-18T02:10:09.719Z,33.90
2018-09-18T02:12:39.799Z,33.90
2018-09-18T02:15:08.618Z,34.00
2018-09-18T02:17:37.448Z,34.00
2018-09-18T02:20:06.707Z,34.00
2018-09-18T02:22:35.684Z,34.00
2018-09-18T02:25:04.576Z,34.00
2018-09-18T02:27:33.657Z,34.00
2018-09-18T02:30:02.755Z,34.10
2018-09-18T02:32:31.587Z,34.10
2018-09-18T02:35:00.463Z,34.10
2018-09-18T02:37:30.186Z,34.10
2018-09-18T02:39:59.027Z,34.10
2018-09-18T02:42:27.935Z,34.20
2018-09-18T02:44:56.776Z,34.10
2018-09-18T02:47:25.619Z,34.20
2018-09-18T02:49:54.546Z,34.10
2018-09-18T02:52:23.387Z,34.20
2018-09-18T02:54:53.599Z,34.20
2018-09-18T02:57:22.427Z,34.20
2018-09-18T02:59:51.272Z,34.30
2018-09-18T03:02:21.706Z,34.30
2018-09-18T03:04:50.535Z,34.30
2018-09-18T03:07:20.430Z,34.30
2018-09-18T03:09:49.266Z,34.80
2018-09-18T03:12:18.095Z,34.30
2018-09-18T03:14:46.959Z,34.30
2018-09-18T03:17:15.786Z,34.40
2018-09-18T03:19:44.674Z,34.30
2018-09-18T03:22:13.537Z,34.40
2018-09-18T03:24:42.942Z,34.40
2018-09-18T03:27:12.233Z,34.50
2018-09-18T03:29:41.350Z,34.40
2018-09-18T03:32:10.536Z,34.40
2018-09-18T03:34:39.439Z,34.50
2018-09-18T03:37:08.275Z,34.50
2018-09-18T03:39:37.416Z,34.50
2018-09-18T03:42:06.253Z,34.50
2018-09-18T03:44:36.388Z,34.40
2018-09-18T03:47:05.563Z,34.50
2018-09-18T03:49:34.411Z,34.50
2018-09-18T03:52:03.539Z,34.50
2018-09-18T03:54:34.140Z,34.60
2018-09-18T03:57:05.879Z,34.60
2018-09-18T03:59:34.731Z,34.60
2018-09-18T04:02:04.703Z,34.60
2018-09-18T04:04:33.560Z,34.50
2018-09-18T04:07:02.765Z,34.60
2018-09-18T04:09:32.193Z,34.60
2018-09-18T04:12:01.050Z,34.60
2018-09-18T04:14:29.958Z,35.00
2018-09-18T04:16:58.799Z,34.60
2018-09-18T04:19:27.639Z,34.50
2018-09-18T04:21:56.489Z,34.50
2018-09-18T04:24:25.360Z,34.50
2018-09-18T04:26:54.909Z,34.50
2018-09-18T04:29:23.771Z,34.50
2018-09-18T04:31:52.635Z,34.60
2018-09-18T04:34:21.484Z,34.50
2018-09-18T04:36:50.317Z,34.60
2018-09-18T04:39:19.680Z,34.60
2018-09-18T04:41:48.549Z,34.60
2018-09-18T04:44:17.856Z,34.60
2018-09-18T04:46:47.597Z,34.60
2018-09-18T04:49:16.455Z,34.60
2018-09-18T04:51:45.321Z,34.60
2018-09-18T04:54:15.094Z,34.70
2018-09-18T04:56:43.930Z,34.70
2018-09-18T04:59:13.778Z,34.70
2018-09-18T05:01:44.029Z,34.70
2018-09-18T05:04:12.901Z,34.70
2018-09-18T05:06:41.750Z,34.70
2018-09-18T05:09:11.242Z,34.80
2018-09-18T05:11:40.214Z,34.80
2018-09-18T05:14:09.107Z,34.80
2018-09-18T05:16:37.960Z,34.80
2018-09-18T05:19:06.803Z,34.80
2018-09-18T05:21:35.657Z,34.80
2018-09-18T05:24:04.851Z,34.80
2018-09-18T05:26:34.048Z,34.80
2018-09-18T05:29:02.900Z,34.90
2018-09-18T05:31:31.754Z,34.90
2018-09-18T05:34:00.600Z,34.80
2018-09-18T05:36:29.463Z,34.80
2018-09-18T05:38:58.852Z,34.80
2018-09-18T05:41:28.515Z,34.80
2018-09-18T05:43:57.378Z,34.80
2018-09-18T05:46:26.210Z,34.90
2018-09-18T05:48:55.077Z,34.90
2018-09-18T05:51:23.950Z,34.80
2018-09-18T05:53:53.848Z,34.80
2018-09-18T05:56:22.692Z,34.90
2018-09-18T05:58:51.677Z,34.90
2018-09-18T06:01:22.747Z,34.90
2018-09-18T06:03:51.604Z,34.90
2018-09-18T06:06:20.455Z,34.90
2018-09-18T06:08:49.331Z,35.20
2018-09-18T06:11:18.194Z,35.40
2018-09-18T06:13:47.405Z,35.50
2018-09-18T06:16:16.276Z,35.90
2018-09-18T06:18:45.148Z,36.00
2018-09-18T06:21:13.993Z,36.40
2018-09-18T06:23:43.305Z,36.80
2018-09-18T06:26:13.029Z,37.00
2018-09-18T06:28:41.828Z,37.60
2018-09-18T06:31:11.865Z,37.80
2018-09-18T06:33:40.783Z,37.90
2018-09-18T06:36:09.638Z,37.90
2018-09-18T06:38:38.508Z,37.60
2018-09-18T06:41:07.360Z,37.30
2018-09-18T06:43:36.287Z,37.00
2018-09-18T06:46:07.826Z,36.90
2018-09-18T06:48:39.608Z,36.70
2018-09-18T06:51:11.569Z,36.70
2018-09-18T06:53:41.492Z,36.60
2018-09-18T06:56:10.336Z,36.30
2018-09-18T06:58:39.183Z,36.60
2018-09-18T07:01:08.798Z,36.10
2018-09-18T07:03:37.659Z,35.90
2018-09-18T07:06:06.830Z,35.80
2018-09-18T07:08:35.731Z,35.70
2018-09-18T07:11:04.660Z,35.50
2018-09-18T07:13:33.615Z,35.40
2018-09-18T07:16:03.429Z,35.30
2018-09-18T07:18:35.747Z,35.20
2018-09-18T07:21:11.147Z,35.20
2018-09-18T07:23:43.171Z,35.30
2018-09-18T07:26:14.518Z,35.00
2018-09-18T07:28:46.722Z,35.00
2018-09-18T07:31:18.513Z,35.00
2018-09-18T07:33:50.379Z,34.90
2018-09-18T07:36:22.194Z,34.90
2018-09-18T07:38:53.699Z,35.10
2018-09-18T07:41:26.791Z,35.00
2018-09-18T07:43:58.660Z,35.10
2018-09-18T07:46:31.268Z,35.10
2018-09-18T07:49:03.766Z,35.00
2018-09-18T07:51:36.544Z,34.90
2018-09-18T07:54:12.498Z,34.80
2018-09-18T07:56:44.275Z,34.70
2018-09-18T07:59:23.834Z,34.80
2018-09-18T08:01:52.853Z,34.90
2018-09-18T08:04:21.890Z,34.70
2018-09-18T08:06:50.757Z,34.70
2018-09-18T08:09:19.660Z,34.70
2018-09-18T08:11:49.285Z,34.90
2018-09-18T08:14:19.564Z,34.90
2018-09-18T08:16:51.190Z,34.70
2018-09-18T08:19:20.771Z,34.80
2018-09-18T08:21:50.171Z,34.70
2018-09-18T08:24:19.307Z,34.70
2018-09-18T08:26:48.193Z,34.70
2018-09-18T08:29:17.123Z,34.70
2018-09-18T08:31:46.102Z,34.70
2018-09-18T08:34:14.954Z,34.70
2018-09-18T08:36:43.819Z,34.80
2018-09-18T08:39:13.140Z,34.80
2018-09-18T08:41:42.336Z,34.80
2018-09-18T08:44:11.474Z,34.80
2018-09-18T08:46:40.383Z,34.70
2018-09-18T08:49:09.500Z,34.70
2018-09-18T08:51:38.433Z,34.70
2018-09-18T08:54:07.512Z,34.70
2018-09-18T08:56:36.364Z,34.60
2018-09-18T08:59:19.983Z,34.60
2018-09-18T09:01:49.817Z,34.60
2018-09-18T09:04:19.926Z,34.60
2018-09-18T09:06:49.800Z,34.60
2018-09-18T09:09:18.700Z,34.50
2018-09-18T09:11:48.394Z,35.10
2018-09-18T09:14:17.320Z,34.40
2018-09-18T09:16:46.516Z,34.50
2018-09-18T09:19:15.479Z,34.50
2018-09-18T09:21:47.029Z,34.40
2018-09-18T09:24:18.299Z,34.40
2018-09-18T09:26:48.811Z,34.60
2018-09-18T09:29:20.926Z,34.50
2018-09-18T09:31:49.873Z,34.50
2018-09-18T09:34:19.231Z,34.60
2018-09-18T09:36:48.804Z,34.60
2018-09-18T09:39:17.571Z,34.60
2018-09-18T09:41:46.434Z,34.70
2018-09-18T09:44:15.314Z,34.70
2018-09-18T09:46:45.330Z,34.70
2018-09-18T09:49:14.162Z,34.70
2018-09-18T09:51:43.692Z,34.70
2018-09-18T09:54:14.055Z,34.70
2018-09-18T09:56:43.018Z,34.70
2018-09-18T09:59:14.079Z,34.70
2018-09-18T10:03:12.175Z,34.70
2018-09-18T10:05:41.387Z,35.20
2018-09-18T10:08:10.204Z,34.90
2018-09-18T10:10:39.196Z,35.00
2018-09-18T10:13:08.491Z,34.90
2018-09-18T10:15:38.099Z,35.30
2018-09-18T10:18:07.443Z,35.30
2018-09-18T10:20:36.316Z,35.30
2018-09-18T10:23:05.172Z,35.30
2018-09-18T10:25:34.342Z,35.30
2018-09-18T10:28:03.404Z,35.30
2018-09-18T10:30:32.243Z,35.50
2018-09-18T10:33:01.202Z,35.50
2018-09-18T10:35:29.983Z,35.60
2018-09-18T10:37:59.130Z,35.80
2018-09-18T10:40:27.985Z,35.90
2018-09-18T10:42:56.925Z,35.90
2018-09-18T10:45:25.714Z,36.00
2018-09-18T10:47:54.555Z,36.10
2018-09-18T10:50:24.463Z,36.10
2018-09-18T10:52:55.499Z,36.20
2018-09-18T10:55:25.038Z,36.20
2018-09-18T10:57:54.815Z,36.30
2018-09-18T11:00:23.663Z,36.70
2018-09-18T11:02:52.937Z,37.00
2018-09-18T11:05:21.809Z,36.60
2018-09-18T11:07:50.702Z,36.60
2018-09-18T11:10:20.420Z,36.60
2018-09-18T11:12:52.889Z,36.60
2018-09-18T11:15:23.671Z,36.60
2018-09-18T11:17:54.452Z,36.50
2018-09-18T11:20:24.850Z,36.40
2018-09-18T11:22:53.790Z,36.40
2018-09-18T11:25:22.597Z,36.40
2018-09-18T11:27:51.449Z,36.50
2018-09-18T11:30:20.306Z,36.50
2018-09-18T11:32:49.650Z,36.50
2018-09-18T11:35:18.718Z,36.50
2018-09-18T11:37:47.564Z,36.50
2018-09-18T11:40:18.762Z,36.50
2018-09-18T11:42:47.657Z,36.40
2018-09-18T11:45:16.494Z,36.30
2018-09-18T11:47:46.764Z,36.30
2018-09-18T11:50:15.645Z,36.20
2018-09-18T11:52:46.050Z,36.10
2018-09-18T11:55:14.836Z,36.00
2018-09-18T11:57:44.378Z,36.00
2018-09-18T12:00:13.278Z,36.00
2018-09-18T12:02:42.175Z,36.20
2018-09-18T12:05:12.328Z,35.90
2018-09-18T12:07:41.512Z,35.70
2018-09-18T12:10:10.809Z,35.50
2018-09-18T12:12:40.799Z,35.30
2018-09-18T12:15:09.659Z,35.10
2018-09-18T12:17:38.513Z,35.60
2018-09-18T12:20:07.400Z,35.20
2018-09-18T12:22:36.448Z,35.00
2018-09-18T12:25:05.151Z,35.10
2018-09-18T12:27:34.374Z,34.90
2018-09-18T12:30:03.207Z,34.70
2018-09-18T12:32:32.695Z,34.70
2018-09-18T12:35:01.855Z,34.60
2018-09-18T12:37:30.862Z,34.60
2018-09-18T12:39:59.768Z,34.80
2018-09-18T12:42:30.220Z,34.20
2018-09-18T12:44:58.989Z,34.10
2018-09-18T12:47:27.876Z,34.70
2018-09-18T12:49:57.095Z,34.20
2018-09-18T12:52:25.745Z,34.30
2018-09-18T12:54:56.035Z,34.40
2018-09-18T12:57:26.318Z,34.30
2018-09-18T12:59:55.706Z,34.20
2018-09-18T13:02:24.478Z,34.20
2018-09-18T13:04:54.475Z,34.20
2018-09-18T13:07:23.852Z,34.30
2018-09-18T13:09:52.765Z,34.20
2018-09-18T13:12:22.789Z,34.20
2018-09-18T13:14:51.691Z,34.10
2018-09-18T13:17:20.956Z,34.10
2018-09-18T13:19:49.791Z,34.00
2018-09-18T13:22:18.601Z,33.90
2018-09-18T13:24:47.480Z,34.00
2018-09-18T13:27:16.353Z,34.00
2018-09-18T13:29:45.202Z,34.00
2018-09-18T13:32:15.131Z,34.10
2018-09-18T13:34:43.973Z,34.10
2018-09-18T13:37:12.812Z,34.20
2018-09-18T13:39:41.699Z,34.30
2018-09-18T13:42:10.544Z,34.40
2018-09-18T13:44:39.571Z,34.50
2018-09-18T13:47:08.482Z,34.50
2018-09-18T13:49:37.639Z,34.40
2018-09-18T13:52:07.152Z,34.40
2018-09-18T13:54:37.200Z,34.50
2018-09-18T13:57:11.357Z,34.50
2018-09-18T13:59:42.732Z,34.50
2018-09-18T14:02:13.902Z,34.60
2018-09-18T14:04:45.451Z,34.60
2018-09-18T14:07:14.602Z,34.50
2018-09-18T14:09:46.320Z,34.60
2018-09-18T14:12:16.640Z,34.50
2018-09-18T14:14:45.899Z,34.50
2018-09-18T14:17:15.931Z,34.50
2018-09-18T14:19:44.815Z,34.40
2018-09-18T14:22:14.018Z,34.40
2018-09-18T14:24:42.959Z,34.40
2018-09-18T14:27:11.793Z,34.40
2018-09-18T14:29:40.830Z,34.40
2018-09-18T14:32:10.179Z,34.40
2018-09-18T14:34:39.177Z,34.40
2018-09-18T14:37:07.968Z,34.40
2018-09-18T14:39:37.104Z,34.40
2018-09-18T14:42:06.287Z,34.70
2018-09-18T14:44:35.401Z,34.70
2018-09-18T14:47:04.248Z,34.70
2018-09-18T14:49:33.073Z,34.70
2018-09-18T14:52:01.953Z,34.80
2018-09-18T14:54:31.823Z,34.70
2018-09-18T14:57:02.696Z,34.90
2018-09-18T14:59:32.032Z,34.80
2018-09-18T15:02:01.383Z,34.80
2018-09-18T15:09:16.714Z,34.80
2018-09-18T15:11:46.730Z,35.10
2018-09-18T15:14:15.584Z,35.20
2018-09-18T15:16:46.256Z,35.60
2018-09-18T15:19:15.181Z,34.90
2018-09-18T15:21:44.514Z,34.90
2018-09-18T15:24:13.606Z,34.90
2018-09-18T15:26:42.687Z,34.90
2018-09-18T15:29:11.820Z,34.70
2018-09-18T15:31:40.696Z,34.60
2018-09-18T15:34:09.568Z,34.50
2018-09-18T15:36:38.405Z,34.60
2018-09-18T15:39:08.270Z,34.50
2018-09-18T15:41:37.408Z,34.50
2018-09-18T15:44:06.291Z,34.50
2018-09-18T15:46:35.533Z,34.40
2018-09-18T15:49:04.601Z,34.40
2018-09-18T15:51:33.488Z,34.40
2018-09-18T15:54:03.830Z,34.50
2018-09-18T15:56:32.658Z,34.50
2018-09-18T15:59:01.527Z,34.50
2018-09-18T16:01:31.412Z,34.50
2018-09-18T16:04:00.955Z,34.50
2018-09-18T16:06:29.802Z,34.60
2018-09-18T16:08:58.649Z,34.60
2018-09-18T16:11:27.902Z,34.60
2018-09-18T16:13:56.747Z,34.60
2018-09-18T16:16:25.650Z,34.80
2018-09-18T16:18:54.470Z,34.60
2018-09-18T16:21:23.310Z,34.60
2018-09-18T16:23:52.218Z,34.70
2018-09-18T16:26:21.063Z,34.70
2018-09-18T16:28:49.908Z,34.80
2018-09-18T16:31:19.067Z,34.80
2018-09-18T16:33:48.109Z,34.80
2018-09-18T16:36:17.320Z,34.90
2018-09-18T16:38:46.160Z,34.90
2018-09-18T16:41:15.012Z,34.80
2018-09-18T16:43:43.846Z,34.90
2018-09-18T16:46:12.675Z,34.90
2018-09-18T16:48:41.971Z,35.00
2018-09-18T16:51:10.825Z,35.00
2018-09-18T16:53:41.490Z,35.00
2018-09-18T16:56:11.383Z,34.90
2018-09-18T16:58:40.316Z,35.50
2018-09-18T17:01:09.063Z,35.00
2018-09-18T17:03:39.383Z,34.90
2018-09-18T17:06:08.608Z,35.10
2018-09-18T17:08:37.462Z,35.00
2018-09-18T17:11:06.355Z,35.00
2018-09-18T17:13:35.650Z,35.00
2018-09-18T17:16:04.676Z,35.00
2018-09-18T17:18:34.248Z,35.00
2018-09-18T17:21:03.451Z,35.00
2018-09-18T17:23:32.284Z,35.10
2018-09-18T17:26:01.155Z,35.20
2018-09-18T17:28:30.527Z,35.20
2018-09-18T17:30:59.207Z,35.20
2018-09-18T17:33:28.069Z,35.20
2018-09-18T17:35:57.353Z,35.20
2018-09-18T17:38:26.514Z,35.30
2018-09-18T17:40:55.774Z,35.30
2018-09-18T17:43:25.090Z,35.30
2018-09-18T17:45:53.919Z,35.30
2018-09-18T17:48:23.230Z,35.30
2018-09-18T17:50:53.538Z,35.40
2018-09-18T17:53:23.832Z,35.40
2018-09-18T17:55:52.614Z,35.50
2018-09-18T17:58:21.460Z,35.40
2018-09-18T18:00:50.303Z,35.50
2018-09-18T18:03:20.055Z,35.50
2018-09-18T18:05:48.891Z,35.60
2018-09-18T18:08:17.783Z,35.70
2018-09-18T18:10:47.002Z,35.70
2018-09-18T18:13:16.840Z,35.80
2018-09-18T18:15:45.680Z,35.80
2018-09-18T18:18:14.517Z,35.80
2018-09-18T18:20:43.467Z,35.90
2018-09-18T18:23:12.212Z,35.90
2018-09-18T18:25:41.479Z,35.90
2018-09-18T18:28:10.595Z,36.00
2018-09-18T18:30:39.490Z,36.00
2018-09-18T18:33:08.607Z,36.10
2018-09-18T18:35:37.544Z,36.20
2018-09-18T18:38:06.667Z,36.30
2018-09-18T18:40:35.511Z,36.40
2018-09-18T18:43:04.358Z,36.50
2018-09-18T18:45:34.051Z,36.50
2018-09-18T18:48:03.895Z,36.60
2018-09-18T18:50:32.581Z,36.50
2018-09-18T18:53:02.987Z,36.60
2018-09-18T18:55:31.831Z,36.70
2018-09-18T18:58:00.680Z,36.80
2018-09-18T19:01:59.058Z,36.90
2018-09-18T19:04:27.922Z,36.90
2018-09-18T19:06:56.826Z,37.00
2018-09-18T19:09:25.667Z,37.10
2018-09-18T19:11:54.517Z,37.10
2018-09-18T19:14:23.363Z,37.10
2018-09-18T19:16:52.820Z,37.10
2018-09-18T19:19:21.659Z,37.20
2018-09-18T19:21:51.052Z,37.30
2018-09-18T19:24:19.845Z,37.40
2018-09-18T19:26:48.671Z,37.50
2018-09-18T19:29:17.904Z,37.50
2018-09-18T19:31:47.076Z,37.50
2018-09-18T19:34:15.907Z,37.50
2018-09-18T19:36:44.753Z,37.60
2018-09-18T19:39:14.624Z,37.70
2018-09-18T19:41:43.400Z,37.80
2018-09-18T19:44:12.246Z,37.80
2018-09-18T19:46:41.099Z,37.80
2018-09-18T19:49:10.292Z,37.80
2018-09-18T19:51:39.612Z,37.90
2018-09-18T19:54:10.163Z,37.90
2018-09-18T19:56:38.992Z,37.90
2018-09-18T19:59:07.828Z,38.00
2018-09-18T20:01:36.745Z,37.90
2018-09-18T20:04:05.535Z,38.00
2018-09-18T20:06:34.412Z,38.10
2018-09-18T20:09:03.452Z,38.10
2018-09-18T20:11:32.546Z,38.20
2018-09-18T20:14:01.375Z,38.70
2018-09-18T20:16:30.508Z,38.20
2018-09-18T20:18:59.439Z,38.20
2018-09-18T20:21:28.273Z,38.20
2018-09-18T20:23:57.386Z,38.30
2018-09-18T20:26:26.214Z,38.40
2018-09-18T20:28:55.118Z,38.40
2018-09-18T20:31:25.161Z,38.40
2018-09-18T20:33:55.042Z,39.00
2018-09-18T20:36:24.186Z,39.10
2018-09-18T20:38:52.943Z,39.10
2018-09-18T20:41:21.999Z,39.20
2018-09-18T20:43:50.862Z,39.20
2018-09-18T20:46:19.775Z,39.20
2018-09-18T20:48:48.624Z,39.20
2018-09-18T20:51:18.028Z,39.20
2018-09-18T20:53:47.828Z,39.40
2018-09-18T20:56:16.652Z,39.30
2018-09-18T20:58:46.388Z,39.30
2018-09-18T21:01:15.591Z,39.30
2018-09-18T21:03:44.433Z,39.30
2018-09-18T21:06:13.320Z,39.30
2018-09-18T21:08:42.175Z,39.40
2018-09-18T21:11:11.017Z,39.40
2018-09-18T21:13:39.852Z,39.40
2018-09-18T21:16:08.939Z,39.40
2018-09-18T21:18:37.848Z,39.40
2018-09-18T21:21:07.682Z,39.40
2018-09-18T21:23:36.539Z,39.40
2018-09-18T21:26:11.736Z,39.50
2018-09-18T21:28:41.728Z,39.50
2018-09-18T21:31:10.555Z,39.60
2018-09-18T21:33:39.419Z,39.70
2018-09-18T21:36:08.579Z,39.70
2018-09-18T21:38:37.419Z,39.70
2018-09-18T21:41:06.312Z,39.80
2018-09-18T21:43:35.507Z,40.40
2018-09-18T21:46:04.370Z,39.80
2018-09-18T21:48:33.394Z,39.90
2018-09-18T21:51:03.657Z,39.90
2018-09-18T21:53:33.707Z,39.90
2018-09-18T21:56:03.027Z,39.90
2018-09-18T21:58:31.867Z,40.00
2018-09-18T22:01:04.386Z,40.00
2018-09-18T22:03:34.327Z,40.00
2018-09-18T22:06:03.699Z,40.10
2018-09-18T22:08:32.563Z,40.10
2018-09-18T22:11:01.651Z,40.20
2018-09-18T22:13:31.389Z,40.30
2018-09-18T22:16:00.263Z,40.20
2018-09-18T22:18:29.096Z,40.30
2018-09-18T22:20:57.956Z,40.30
2018-09-18T22:23:27.768Z,40.30
2018-09-18T22:25:56.663Z,40.30
2018-09-18T22:28:25.496Z,40.30
2018-09-18T22:30:54.345Z,40.40
2018-09-18T22:33:23.583Z,40.40
2018-09-18T22:35:52.897Z,40.40
2018-09-18T22:38:21.746Z,40.50
2018-09-18T22:40:50.607Z,40.50
2018-09-18T22:43:19.449Z,40.60
2018-09-18T22:45:48.576Z,40.60
2018-09-18T22:48:18.086Z,40.60
2018-09-18T22:50:47.290Z,40.60
2018-09-18T22:53:17.525Z,40.60
2018-09-18T22:55:46.438Z,40.70
2018-09-18T22:58:15.318Z,40.70
2018-09-18T23:00:44.167Z,40.70
2018-09-18T23:03:13.039Z,40.80
2018-09-18T23:05:43.001Z,40.90
2018-09-18T23:08:12.180Z,40.90
2018-09-18T23:10:41.108Z,40.90
2018-09-18T23:13:09.981Z,40.90
2018-09-18T23:15:38.988Z,41.00
2018-09-18T23:18:08.806Z,41.00
2018-09-18T23:20:38.665Z,41.00
2018-09-18T23:23:07.507Z,41.10
2018-09-18T23:25:36.348Z,41.10
2018-09-18T23:28:05.434Z,41.10
2018-09-18T23:30:34.455Z,41.20
2018-09-18T23:33:03.318Z,41.10
2018-09-18T23:35:32.166Z,41.20
2018-09-18T23:38:01.000Z,41.10
2018-09-18T23:40:30.267Z,41.20
2018-09-18T23:42:59.322Z,41.20
2018-09-18T23:45:28.747Z,41.20
2018-09-18T23:47:57.602Z,41.30
2018-09-18T23:50:27.531Z,41.30
2018-09-18T23:52:57.876Z,41.30
2018-09-18T23:55:26.732Z,41.40
2018-09-18T23:57:55.721Z,41.40
